N428MC KEYW-KGPT
Flight info
| Callsign | N428MC |
|---|---|
| Flight time | 1h 11m |
| Altitude | 25000 |
| Route | KARTR SRQ Y280 REDFN GPTCC |
| Aircraft | B350/M-VGD/A |
Departure
| Time | 2026-05-06 21:25 |
|---|---|
| Airport | Key West International Airport (KEYW) |
Arrival
| Time | 2026-05-06 22:36 |
|---|---|
| Airport | Gulfport Biloxi International Airport (KGPT) |
| Time | Latitude | Longitude | Altitude | Speed | Heading |
|---|---|---|---|---|---|
| 2026-05-06 21:06 | 24.55480 | -81.75659 | 5 ft | 0 kts | 1° |
| 2026-05-06 21:21 | 24.55482 | -81.75659 | 5 ft | 0 kts | 357° |
| 2026-05-06 21:22 | 24.55501 | -81.75671 | 5 ft | 6 kts | 330° |
| 2026-05-06 21:22 | 24.55529 | -81.75717 | 5 ft | 9 kts | 274° |
| 2026-05-06 21:22 | 24.55527 | -81.75814 | 5 ft | 16 kts | 269° |
| 2026-05-06 21:23 | 24.55526 | -81.75900 | 5 ft | 9 kts | 268° |
| 2026-05-06 21:23 | 24.55524 | -81.76063 | 5 ft | 31 kts | 267° |
| 2026-05-06 21:23 | 24.55517 | -81.76308 | 5 ft | 26 kts | 270° |
| 2026-05-06 21:23 | 24.55518 | -81.76537 | 5 ft | 29 kts | 271° |
| 2026-05-06 21:24 | 24.55526 | -81.76644 | 5 ft | 0 kts | 316° |
| 2026-05-06 21:24 | 24.55562 | -81.76658 | 5 ft | 3 kts | 346° |
| 2026-05-06 21:24 | 24.55586 | -81.76661 | 5 ft | 11 kts | 357° |
| 2026-05-06 21:24 | 24.55607 | -81.76618 | 5 ft | 25 kts | 89° |
| 2026-05-06 21:25 | 24.55613 | -81.76057 | 5 ft | 114 kts | 89° |
| 2026-05-06 21:25 | 24.55633 | -81.74989 | 84 ft | 158 kts | 90° |
| 2026-05-06 21:25 | 24.55937 | -81.73798 | 457 ft | 175 kts | 46° |
| 2026-05-06 21:25 | 24.57118 | -81.73267 | 812 ft | 189 kts | 18° |
| 2026-05-06 21:26 | 24.58266 | -81.72952 | 1747 ft | 166 kts | 1° |
| 2026-05-06 21:26 | 24.59396 | -81.73232 | 2294 ft | 170 kts | 343° |
| 2026-05-06 21:26 | 24.60535 | -81.73616 | 2752 ft | 177 kts | 344° |
| 2026-05-06 21:26 | 24.61763 | -81.73917 | 3227 ft | 182 kts | 357° |
| 2026-05-06 21:27 | 24.63011 | -81.73865 | 3727 ft | 184 kts | 8° |
| 2026-05-06 21:27 | 24.64275 | -81.73642 | 4261 ft | 183 kts | 12° |
| 2026-05-06 21:27 | 24.65512 | -81.73357 | 4782 ft | 183 kts | 14° |
| 2026-05-06 21:27 | 24.66750 | -81.73048 | 5283 ft | 183 kts | 14° |
| 2026-05-06 21:28 | 24.67994 | -81.72728 | 5760 ft | 184 kts | 14° |
| 2026-05-06 21:28 | 24.69255 | -81.72401 | 6233 ft | 185 kts | 14° |
| 2026-05-06 21:28 | 24.70496 | -81.72077 | 6702 ft | 184 kts | 14° |
| 2026-05-06 21:28 | 24.71742 | -81.71752 | 7185 ft | 184 kts | 14° |
| 2026-05-06 21:29 | 24.72969 | -81.71433 | 7630 ft | 183 kts | 14° |
| 2026-05-06 21:29 | 24.74210 | -81.71108 | 8079 ft | 184 kts | 14° |
| 2026-05-06 21:29 | 24.75455 | -81.70782 | 8584 ft | 183 kts | 15° |
| 2026-05-06 21:29 | 24.76699 | -81.70458 | 9106 ft | 182 kts | 15° |
| 2026-05-06 21:30 | 24.77915 | -81.70139 | 9616 ft | 180 kts | 15° |
| 2026-05-06 21:30 | 24.79123 | -81.69824 | 10061 ft | 179 kts | 15° |
| 2026-05-06 21:30 | 24.80331 | -81.69508 | 10508 ft | 179 kts | 15° |
| 2026-05-06 21:30 | 24.81552 | -81.69190 | 10956 ft | 183 kts | 15° |
| 2026-05-06 21:31 | 24.82781 | -81.68868 | 11498 ft | 182 kts | 15° |
| 2026-05-06 21:31 | 24.84012 | -81.68546 | 12068 ft | 179 kts | 16° |
| 2026-05-06 21:31 | 24.85211 | -81.68233 | 12602 ft | 177 kts | 16° |
| 2026-05-06 21:31 | 24.86390 | -81.67924 | 13093 ft | 176 kts | 16° |
| 2026-05-06 21:32 | 24.87582 | -81.67612 | 13556 ft | 176 kts | 16° |
| 2026-05-06 21:32 | 24.89977 | -81.66984 | 14407 ft | 178 kts | 15° |
| 2026-05-06 21:32 | 24.91199 | -81.66664 | 14815 ft | 179 kts | 15° |
| 2026-05-06 21:33 | 24.92408 | -81.66347 | 15216 ft | 179 kts | 14° |
| 2026-05-06 21:33 | 24.93621 | -81.66029 | 15596 ft | 180 kts | 14° |
| 2026-05-06 21:33 | 24.94827 | -81.65713 | 15974 ft | 180 kts | 13° |
| 2026-05-06 21:33 | 24.96060 | -81.65390 | 16347 ft | 181 kts | 13° |
| 2026-05-06 21:34 | 24.97290 | -81.65067 | 16721 ft | 183 kts | 13° |
| 2026-05-06 21:34 | 24.98530 | -81.64741 | 17121 ft | 183 kts | 12° |
| 2026-05-06 21:34 | 24.99766 | -81.64417 | 17515 ft | 183 kts | 12° |
| 2026-05-06 21:34 | 25.00998 | -81.64094 | 17901 ft | 183 kts | 12° |
| 2026-05-06 21:35 | 25.02243 | -81.63767 | 18285 ft | 183 kts | 11° |
| 2026-05-06 21:35 | 25.03468 | -81.63447 | 18640 ft | 184 kts | 11° |
| 2026-05-06 21:35 | 25.04712 | -81.63121 | 18996 ft | 184 kts | 11° |
| 2026-05-06 21:35 | 25.05961 | -81.62794 | 19353 ft | 183 kts | 11° |
| 2026-05-06 21:36 | 25.07199 | -81.62469 | 19690 ft | 183 kts | 10° |
| 2026-05-06 21:36 | 25.08435 | -81.62144 | 20019 ft | 183 kts | 10° |
| 2026-05-06 21:36 | 25.09676 | -81.61819 | 20332 ft | 183 kts | 9° |
| 2026-05-06 21:36 | 25.10912 | -81.61494 | 20639 ft | 184 kts | 9° |
| 2026-05-06 21:37 | 25.12155 | -81.61167 | 20940 ft | 184 kts | 9° |
| 2026-05-06 21:37 | 25.13410 | -81.60838 | 21239 ft | 184 kts | 8° |
| 2026-05-06 21:37 | 25.14649 | -81.60511 | 21533 ft | 184 kts | 8° |
| 2026-05-06 21:37 | 25.15890 | -81.60185 | 21828 ft | 184 kts | 8° |
| 2026-05-06 21:38 | 25.17148 | -81.59854 | 22121 ft | 183 kts | 8° |
| 2026-05-06 21:38 | 25.18382 | -81.59529 | 22387 ft | 183 kts | 7° |
| 2026-05-06 21:38 | 25.19622 | -81.59204 | 22659 ft | 184 kts | 7° |
| 2026-05-06 21:38 | 25.20878 | -81.58875 | 22960 ft | 185 kts | 7° |
| 2026-05-06 21:39 | 25.22127 | -81.58547 | 23256 ft | 185 kts | 7° |
| 2026-05-06 21:39 | 25.23388 | -81.58215 | 23543 ft | 186 kts | 7° |
| 2026-05-06 21:39 | 25.24649 | -81.57883 | 23820 ft | 186 kts | 7° |
| 2026-05-06 21:39 | 25.25911 | -81.57551 | 24095 ft | 186 kts | 7° |
| 2026-05-06 21:40 | 25.27164 | -81.57220 | 24359 ft | 187 kts | 7° |
| 2026-05-06 21:40 | 25.28433 | -81.56886 | 24619 ft | 187 kts | 6° |
| 2026-05-06 21:40 | 25.29716 | -81.56548 | 24869 ft | 188 kts | 6° |
| 2026-05-06 21:40 | 25.30996 | -81.56211 | 25017 ft | 194 kts | 6° |
| 2026-05-06 21:41 | 25.32362 | -81.55853 | 25039 ft | 207 kts | 7° |
| 2026-05-06 21:41 | 25.33801 | -81.55473 | 25043 ft | 219 kts | 7° |
| 2026-05-06 21:41 | 25.35328 | -81.55070 | 25043 ft | 232 kts | 7° |
| 2026-05-06 21:41 | 25.36944 | -81.54643 | 25039 ft | 243 kts | 8° |
| 2026-05-06 21:42 | 25.38618 | -81.54200 | 25036 ft | 254 kts | 8° |
| 2026-05-06 21:42 | 25.40395 | -81.53730 | 25028 ft | 264 kts | 8° |
| 2026-05-06 21:42 | 25.42203 | -81.53252 | 25031 ft | 273 kts | 8° |
| 2026-05-06 21:42 | 25.44076 | -81.52755 | 25025 ft | 277 kts | 8° |
| 2026-05-06 21:43 | 25.45950 | -81.52258 | 25019 ft | 278 kts | 8° |
| 2026-05-06 21:43 | 25.47838 | -81.51759 | 25020 ft | 280 kts | 8° |
| 2026-05-06 21:43 | 25.49753 | -81.51610 | 25002 ft | 271 kts | 344° |
| 2026-05-06 21:43 | 25.51495 | -81.52361 | 25029 ft | 268 kts | 333° |
| 2026-05-06 21:44 | 25.53185 | -81.53242 | 25021 ft | 270 kts | 332° |
| 2026-05-06 21:44 | 25.54885 | -81.54145 | 25018 ft | 271 kts | 332° |
| 2026-05-06 21:44 | 25.56592 | -81.55061 | 25018 ft | 273 kts | 332° |
| 2026-05-06 21:44 | 25.58312 | -81.55987 | 25021 ft | 274 kts | 332° |
| 2026-05-06 21:45 | 25.60024 | -81.56911 | 25017 ft | 275 kts | 332° |
| 2026-05-06 21:45 | 25.61735 | -81.57836 | 25017 ft | 276 kts | 332° |
| 2026-05-06 21:45 | 25.63464 | -81.58771 | 25017 ft | 277 kts | 332° |
| 2026-05-06 21:45 | 25.65210 | -81.59715 | 25012 ft | 278 kts | 332° |
| 2026-05-06 21:46 | 25.66938 | -81.60651 | 25010 ft | 279 kts | 332° |
| 2026-05-06 21:46 | 25.68698 | -81.61604 | 25011 ft | 279 kts | 332° |
| 2026-05-06 21:46 | 25.70433 | -81.62545 | 25012 ft | 280 kts | 332° |
| 2026-05-06 21:46 | 25.96548 | -81.76731 | 25041 ft | 280 kts | 332° |
| 2026-05-06 21:47 | 26.22578 | -81.90943 | 25064 ft | 281 kts | 331° |
| 2026-05-06 21:47 | 26.51722 | -82.06939 | 25080 ft | 282 kts | 331° |
| 2026-05-06 21:47 | 26.79865 | -82.22488 | 25017 ft | 282 kts | 330° |
| 2026-05-06 21:47 | 27.07141 | -82.37615 | 24979 ft | 282 kts | 330° |
| 2026-05-06 21:48 | 27.31585 | -82.51225 | 25009 ft | 282 kts | 329° |
| 2026-05-06 21:48 | 27.38536 | -82.55151 | 25025 ft | 282 kts | 329° |
| 2026-05-06 21:48 | 27.40134 | -82.56359 | 25005 ft | 275 kts | 309° |
| 2026-05-06 21:48 | 27.40945 | -82.58243 | 25034 ft | 272 kts | 287° |
| 2026-05-06 21:49 | 27.41393 | -82.60311 | 25033 ft | 273 kts | 285° |
| 2026-05-06 21:49 | 27.41808 | -82.62384 | 25028 ft | 273 kts | 284° |
| 2026-05-06 21:49 | 27.42209 | -82.64462 | 25027 ft | 274 kts | 284° |
| 2026-05-06 21:49 | 27.42607 | -82.66560 | 25035 ft | 274 kts | 283° |
| 2026-05-06 21:50 | 27.43005 | -82.68677 | 25035 ft | 275 kts | 283° |
| 2026-05-06 21:50 | 27.43395 | -82.70762 | 25037 ft | 275 kts | 283° |
| 2026-05-06 21:50 | 27.43994 | -82.73971 | 25037 ft | 276 kts | 283° |
| 2026-05-06 21:50 | 27.50293 | -83.08048 | 25068 ft | 277 kts | 283° |
| 2026-05-06 21:51 | 27.56155 | -83.41737 | 24968 ft | 277 kts | 283° |
| 2026-05-06 21:51 | 27.61899 | -83.75874 | 24853 ft | 277 kts | 274° |
| 2026-05-06 21:51 | 27.62384 | -83.81359 | 25017 ft | 273 kts | 296° |
| 2026-05-06 21:51 | 27.63285 | -83.83234 | 25034 ft | 272 kts | 292° |
| 2026-05-06 21:52 | 27.63945 | -83.85249 | 25031 ft | 273 kts | 287° |
| 2026-05-06 21:52 | 27.64455 | -83.87304 | 25029 ft | 273 kts | 284° |
| 2026-05-06 21:52 | 27.64893 | -83.89382 | 25029 ft | 274 kts | 283° |
| 2026-05-06 21:52 | 27.65301 | -83.91493 | 25030 ft | 275 kts | 282° |
| 2026-05-06 21:53 | 27.65688 | -83.93592 | 25029 ft | 275 kts | 282° |
| 2026-05-06 21:53 | 27.66066 | -83.95689 | 25029 ft | 276 kts | 282° |
| 2026-05-06 21:53 | 27.66444 | -83.97810 | 25028 ft | 276 kts | 282° |
| 2026-05-06 21:53 | 27.68380 | -84.08771 | 25034 ft | 277 kts | 282° |
| 2026-05-06 21:54 | 27.74308 | -84.42815 | 25014 ft | 277 kts | 281° |
| 2026-05-06 21:54 | 27.80112 | -84.76554 | 25011 ft | 277 kts | 281° |
| 2026-05-06 21:54 | 27.80622 | -84.79572 | 25028 ft | 277 kts | 280° |
| 2026-05-06 21:54 | 27.80983 | -84.81705 | 25029 ft | 277 kts | 280° |
| 2026-05-06 21:55 | 27.81408 | -84.83803 | 25023 ft | 278 kts | 289° |
| 2026-05-06 21:55 | 27.81907 | -84.85893 | 25025 ft | 276 kts | 277° |
| 2026-05-06 21:55 | 27.82159 | -84.88044 | 25033 ft | 277 kts | 279° |
| 2026-05-06 21:55 | 27.85094 | -85.05808 | 25035 ft | 277 kts | 281° |
| 2026-05-06 21:56 | 27.88176 | -85.24725 | 25019 ft | 276 kts | 282° |
| 2026-05-06 21:56 | 27.88698 | -85.26840 | 25025 ft | 277 kts | 288° |
| 2026-05-06 21:56 | 27.89334 | -85.28879 | 25025 ft | 277 kts | 288° |
| 2026-05-06 21:56 | 27.89966 | -85.30936 | 25026 ft | 277 kts | 287° |
| 2026-05-06 21:57 | 27.90587 | -85.32972 | 25024 ft | 277 kts | 288° |
| 2026-05-06 21:57 | 27.91213 | -85.35032 | 25024 ft | 278 kts | 287° |
| 2026-05-06 21:57 | 27.91844 | -85.37111 | 25024 ft | 278 kts | 287° |
| 2026-05-06 21:57 | 27.92468 | -85.39173 | 25024 ft | 278 kts | 287° |
| 2026-05-06 21:58 | 27.93094 | -85.41240 | 25023 ft | 278 kts | 287° |
| 2026-05-06 21:58 | 27.93716 | -85.43295 | 25024 ft | 278 kts | 287° |
| 2026-05-06 21:58 | 27.94334 | -85.45341 | 25023 ft | 278 kts | 287° |
| 2026-05-06 21:58 | 27.94963 | -85.47424 | 25023 ft | 278 kts | 287° |
| 2026-05-06 21:59 | 27.95583 | -85.49480 | 25022 ft | 278 kts | 287° |
| 2026-05-06 21:59 | 28.02399 | -85.72141 | 25002 ft | 278 kts | 287° |
| 2026-05-06 21:59 | 28.12290 | -86.05304 | 25059 ft | 278 kts | 287° |
| 2026-05-06 21:59 | 28.22045 | -86.38313 | 25037 ft | 278 kts | 286° |
| 2026-05-06 22:00 | 28.31630 | -86.71148 | 24957 ft | 278 kts | 285° |
| 2026-05-06 22:00 | 28.32232 | -86.73197 | 25001 ft | 277 kts | 286° |
| 2026-05-06 22:00 | 28.32848 | -86.75279 | 24998 ft | 277 kts | 285° |
| 2026-05-06 22:00 | 28.33458 | -86.77351 | 24996 ft | 277 kts | 285° |
| 2026-05-06 22:01 | 28.34069 | -86.79433 | 24994 ft | 278 kts | 285° |
| 2026-05-06 22:01 | 28.34679 | -86.81515 | 24996 ft | 278 kts | 285° |
| 2026-05-06 22:01 | 28.35281 | -86.83572 | 24992 ft | 278 kts | 285° |
| 2026-05-06 22:01 | 28.35887 | -86.85646 | 24992 ft | 278 kts | 285° |
| 2026-05-06 22:02 | 28.36495 | -86.87724 | 24988 ft | 278 kts | 285° |
| 2026-05-06 22:02 | 28.37105 | -86.89816 | 24990 ft | 278 kts | 285° |
| 2026-05-06 22:02 | 28.37715 | -86.91906 | 24988 ft | 278 kts | 285° |
| 2026-05-06 22:02 | 28.38321 | -86.93983 | 24985 ft | 278 kts | 285° |
| 2026-05-06 22:03 | 28.38923 | -86.96048 | 24989 ft | 278 kts | 285° |
| 2026-05-06 22:03 | 28.39533 | -86.98144 | 24991 ft | 278 kts | 285° |
| 2026-05-06 22:03 | 28.40141 | -87.00235 | 24988 ft | 278 kts | 285° |
| 2026-05-06 22:03 | 28.47550 | -87.25787 | 25036 ft | 278 kts | 285° |
| 2026-05-06 22:04 | 28.57130 | -87.59156 | 24951 ft | 277 kts | 285° |
| 2026-05-06 22:04 | 28.66491 | -87.92063 | 25049 ft | 277 kts | 284° |
| 2026-05-06 22:04 | 28.70821 | -88.07423 | 24986 ft | 277 kts | 284° |
| 2026-05-06 22:04 | 28.71572 | -88.09459 | 24987 ft | 280 kts | 292° |
| 2026-05-06 22:05 | 28.72163 | -88.11533 | 24991 ft | 274 kts | 281° |
| 2026-05-06 22:05 | 28.72651 | -88.13627 | 24981 ft | 275 kts | 282° |
| 2026-05-06 22:05 | 28.73184 | -88.15691 | 24976 ft | 275 kts | 283° |
| 2026-05-06 22:05 | 28.73747 | -88.17782 | 24980 ft | 275 kts | 283° |
| 2026-05-06 22:06 | 28.74324 | -88.19878 | 24974 ft | 276 kts | 283° |
| 2026-05-06 22:06 | 28.74901 | -88.21957 | 24977 ft | 276 kts | 284° |
| 2026-05-06 22:06 | 28.75476 | -88.24017 | 24975 ft | 275 kts | 283° |
| 2026-05-06 22:06 | 28.76054 | -88.26088 | 24973 ft | 275 kts | 283° |
| 2026-05-06 22:07 | 28.76636 | -88.28169 | 24976 ft | 275 kts | 284° |
| 2026-05-06 22:07 | 28.77215 | -88.30243 | 24969 ft | 275 kts | 284° |
| 2026-05-06 22:07 | 28.77791 | -88.32304 | 24966 ft | 275 kts | 284° |
| 2026-05-06 22:07 | 28.78373 | -88.34390 | 24971 ft | 275 kts | 284° |
| 2026-05-06 22:08 | 28.78954 | -88.36474 | 24965 ft | 275 kts | 284° |
| 2026-05-06 22:08 | 28.79526 | -88.38527 | 24964 ft | 275 kts | 284° |
| 2026-05-06 22:08 | 28.80103 | -88.40598 | 24958 ft | 275 kts | 284° |
| 2026-05-06 22:08 | 28.80686 | -88.42690 | 24960 ft | 275 kts | 284° |
| 2026-05-06 22:09 | 28.81256 | -88.44741 | 24957 ft | 275 kts | 284° |
| 2026-05-06 22:09 | 28.81837 | -88.46831 | 24955 ft | 275 kts | 284° |
| 2026-05-06 22:09 | 28.82407 | -88.48882 | 24950 ft | 275 kts | 284° |
| 2026-05-06 22:09 | 28.82987 | -88.50973 | 24950 ft | 275 kts | 284° |
| 2026-05-06 22:10 | 28.83560 | -88.53036 | 24953 ft | 274 kts | 283° |
| 2026-05-06 22:10 | 28.84136 | -88.55120 | 24951 ft | 274 kts | 283° |
| 2026-05-06 22:10 | 28.84705 | -88.57175 | 24954 ft | 274 kts | 283° |
| 2026-05-06 22:10 | 28.85279 | -88.59251 | 24856 ft | 276 kts | 284° |
| 2026-05-06 22:11 | 28.85861 | -88.61353 | 24451 ft | 281 kts | 283° |
| 2026-05-06 22:11 | 28.86452 | -88.63491 | 24078 ft | 283 kts | 284° |
| 2026-05-06 22:11 | 28.87037 | -88.65605 | 23988 ft | 280 kts | 283° |
| 2026-05-06 22:11 | 28.87621 | -88.67721 | 23972 ft | 279 kts | 283° |
| 2026-05-06 22:12 | 28.88358 | -88.69742 | 23948 ft | 285 kts | 299° |
| 2026-05-06 22:12 | 28.89899 | -88.71217 | 23984 ft | 298 kts | 320° |
| 2026-05-06 22:12 | 28.91687 | -88.72404 | 23971 ft | 298 kts | 321° |
| 2026-05-06 22:12 | 28.93483 | -88.73589 | 23969 ft | 298 kts | 321° |
| 2026-05-06 22:13 | 28.95288 | -88.74781 | 23974 ft | 297 kts | 321° |
| 2026-05-06 22:13 | 28.97075 | -88.75960 | 23969 ft | 297 kts | 321° |
| 2026-05-06 22:13 | 28.98866 | -88.77143 | 23970 ft | 297 kts | 321° |
| 2026-05-06 22:13 | 29.00641 | -88.78316 | 23972 ft | 296 kts | 321° |
| 2026-05-06 22:14 | 29.02418 | -88.79490 | 23968 ft | 295 kts | 321° |
| 2026-05-06 22:14 | 29.04216 | -88.80679 | 23970 ft | 295 kts | 321° |
| 2026-05-06 22:14 | 29.05971 | -88.81839 | 23972 ft | 295 kts | 320° |
| 2026-05-06 22:14 | 29.07759 | -88.83021 | 23972 ft | 295 kts | 321° |
| 2026-05-06 22:15 | 29.09523 | -88.84189 | 23967 ft | 294 kts | 321° |
| 2026-05-06 22:15 | 29.11301 | -88.85366 | 23968 ft | 294 kts | 321° |
| 2026-05-06 22:15 | 29.13062 | -88.86533 | 23960 ft | 294 kts | 321° |
| 2026-05-06 22:15 | 29.14833 | -88.87707 | 23968 ft | 293 kts | 321° |
| 2026-05-06 22:16 | 29.16597 | -88.88876 | 23861 ft | 294 kts | 321° |
| 2026-05-06 22:16 | 29.18361 | -88.90043 | 23462 ft | 293 kts | 321° |
| 2026-05-06 22:16 | 29.20108 | -88.91201 | 23106 ft | 292 kts | 321° |
| 2026-05-06 22:16 | 29.21870 | -88.92371 | 22746 ft | 292 kts | 321° |
| 2026-05-06 22:17 | 29.23615 | -88.93530 | 22392 ft | 291 kts | 321° |
| 2026-05-06 22:17 | 29.25357 | -88.94688 | 22034 ft | 290 kts | 321° |
| 2026-05-06 22:17 | 29.27099 | -88.95846 | 21676 ft | 290 kts | 321° |
| 2026-05-06 22:17 | 29.28825 | -88.96993 | 21322 ft | 289 kts | 321° |
| 2026-05-06 22:18 | 29.30572 | -88.98154 | 20963 ft | 289 kts | 321° |
| 2026-05-06 22:18 | 29.32292 | -88.99298 | 20610 ft | 288 kts | 322° |
| 2026-05-06 22:18 | 29.34239 | -89.00035 | 20232 ft | 306 kts | 345° |
| 2026-05-06 22:18 | 29.36383 | -89.00196 | 19895 ft | 307 kts | 348° |
| 2026-05-06 22:19 | 29.38485 | -89.00332 | 19547 ft | 307 kts | 348° |
| 2026-05-06 22:19 | 29.40626 | -89.00471 | 19188 ft | 307 kts | 348° |
| 2026-05-06 22:19 | 29.42763 | -89.00609 | 18830 ft | 306 kts | 348° |
| 2026-05-06 22:19 | 29.44902 | -89.00747 | 18477 ft | 306 kts | 349° |
| 2026-05-06 22:20 | 29.47026 | -89.00884 | 18120 ft | 306 kts | 349° |
| 2026-05-06 22:20 | 29.49152 | -89.01021 | 17766 ft | 305 kts | 349° |
| 2026-05-06 22:20 | 29.51274 | -89.01158 | 17412 ft | 305 kts | 349° |
| 2026-05-06 22:20 | 29.53388 | -89.01295 | 17058 ft | 305 kts | 349° |
| 2026-05-06 22:21 | 29.55487 | -89.01433 | 16698 ft | 304 kts | 350° |
| 2026-05-06 22:21 | 29.57581 | -89.01569 | 16336 ft | 305 kts | 349° |
| 2026-05-06 22:21 | 29.59704 | -89.01708 | 15985 ft | 305 kts | 350° |
| 2026-05-06 22:21 | 29.61835 | -89.01846 | 15629 ft | 305 kts | 350° |
| 2026-05-06 22:22 | 29.63947 | -89.01983 | 15274 ft | 305 kts | 350° |
| 2026-05-06 22:22 | 29.66071 | -89.02121 | 14916 ft | 306 kts | 350° |
| 2026-05-06 22:22 | 29.68190 | -89.02259 | 14567 ft | 306 kts | 351° |
| 2026-05-06 22:22 | 29.70324 | -89.02397 | 14213 ft | 307 kts | 351° |
| 2026-05-06 22:23 | 29.72440 | -89.02535 | 13861 ft | 307 kts | 351° |
| 2026-05-06 22:23 | 29.74561 | -89.02673 | 13509 ft | 308 kts | 351° |
| 2026-05-06 22:23 | 29.76694 | -89.02812 | 13156 ft | 308 kts | 351° |
| 2026-05-06 22:23 | 29.78839 | -89.02951 | 12802 ft | 308 kts | 351° |
| 2026-05-06 22:24 | 29.80968 | -89.03090 | 12462 ft | 308 kts | 351° |
| 2026-05-06 22:24 | 29.83116 | -89.03230 | 12105 ft | 308 kts | 351° |
| 2026-05-06 22:24 | 29.85232 | -89.03368 | 11749 ft | 308 kts | 351° |
| 2026-05-06 22:24 | 29.87372 | -89.03508 | 11401 ft | 307 kts | 351° |
| 2026-05-06 22:25 | 29.89510 | -89.03648 | 11072 ft | 306 kts | 351° |
| 2026-05-06 22:25 | 29.91601 | -89.03784 | 11017 ft | 299 kts | 351° |
| 2026-05-06 22:25 | 29.93665 | -89.03919 | 11001 ft | 294 kts | 351° |
| 2026-05-06 22:25 | 29.95702 | -89.04052 | 10994 ft | 289 kts | 351° |
| 2026-05-06 22:26 | 29.97694 | -89.04173 | 11000 ft | 286 kts | 351° |
| 2026-05-06 22:26 | 29.99549 | -89.04768 | 10684 ft | 273 kts | 324° |
| 2026-05-06 22:26 | 30.01158 | -89.05889 | 10354 ft | 269 kts | 322° |
| 2026-05-06 22:26 | 30.02756 | -89.07042 | 9995 ft | 268 kts | 322° |
| 2026-05-06 22:27 | 30.04314 | -89.08171 | 9646 ft | 268 kts | 322° |
| 2026-05-06 22:27 | 30.05903 | -89.09323 | 9282 ft | 267 kts | 322° |
| 2026-05-06 22:27 | 30.07459 | -89.10453 | 8928 ft | 266 kts | 322° |
| 2026-05-06 22:27 | 30.09025 | -89.11591 | 8569 ft | 265 kts | 322° |
| 2026-05-06 22:28 | 30.10584 | -89.12724 | 8225 ft | 265 kts | 322° |
| 2026-05-06 22:28 | 30.12137 | -89.13854 | 7864 ft | 264 kts | 322° |
| 2026-05-06 22:28 | 30.13698 | -89.14990 | 7493 ft | 264 kts | 322° |
| 2026-05-06 22:28 | 30.15254 | -89.16122 | 7128 ft | 263 kts | 322° |
| 2026-05-06 22:29 | 30.16801 | -89.17248 | 6757 ft | 263 kts | 322° |
| 2026-05-06 22:29 | 30.18337 | -89.18367 | 6393 ft | 263 kts | 322° |
| 2026-05-06 22:29 | 30.19853 | -89.19472 | 6032 ft | 263 kts | 322° |
| 2026-05-06 22:29 | 30.21386 | -89.20590 | 5663 ft | 263 kts | 323° |
| 2026-05-06 22:30 | 30.22881 | -89.21680 | 5309 ft | 263 kts | 323° |
| 2026-05-06 22:30 | 30.24430 | -89.22810 | 4946 ft | 263 kts | 323° |
| 2026-05-06 22:30 | 30.25987 | -89.23946 | 4579 ft | 263 kts | 323° |
| 2026-05-06 22:30 | 30.27527 | -89.25070 | 4222 ft | 264 kts | 323° |
| 2026-05-06 22:31 | 30.29083 | -89.26205 | 4018 ft | 257 kts | 323° |
| 2026-05-06 22:31 | 30.30551 | -89.27277 | 3984 ft | 247 kts | 323° |
| 2026-05-06 22:31 | 30.32092 | -89.28222 | 3980 ft | 254 kts | 341° |
| 2026-05-06 22:31 | 30.33839 | -89.28108 | 4001 ft | 260 kts | 19° |
| 2026-05-06 22:32 | 30.35356 | -89.26967 | 4015 ft | 260 kts | 37° |
| 2026-05-06 22:32 | 30.36827 | -89.25744 | 4004 ft | 262 kts | 36° |
| 2026-05-06 22:32 | 30.38331 | -89.24522 | 3998 ft | 264 kts | 35° |
| 2026-05-06 22:32 | 30.39844 | -89.23299 | 3996 ft | 264 kts | 35° |
| 2026-05-06 22:33 | 30.41351 | -89.22082 | 3923 ft | 261 kts | 35° |
| 2026-05-06 22:33 | 30.42839 | -89.20879 | 3504 ft | 257 kts | 36° |
| 2026-05-06 22:33 | 30.44277 | -89.19726 | 3141 ft | 251 kts | 36° |
| 2026-05-06 22:33 | 30.45702 | -89.18583 | 2777 ft | 246 kts | 37° |
| 2026-05-06 22:34 | 30.46736 | -89.17123 | 2414 ft | 233 kts | 75° |
| 2026-05-06 22:34 | 30.46969 | -89.15331 | 2037 ft | 224 kts | 90° |
| 2026-05-06 22:34 | 30.46824 | -89.13680 | 1974 ft | 192 kts | 125° |
| 2026-05-06 22:34 | 30.45907 | -89.12803 | 2078 ft | 160 kts | 162° |
| 2026-05-06 22:35 | 30.44947 | -89.12200 | 1866 ft | 158 kts | 147° |
| 2026-05-06 22:35 | 30.44149 | -89.11288 | 1145 ft | 167 kts | 137° |
| 2026-05-06 22:35 | 30.43381 | -89.10403 | 793 ft | 146 kts | 143° |
| 2026-05-06 22:35 | 30.42687 | -89.09618 | 411 ft | 132 kts | 138° |
| 2026-05-06 22:36 | 30.42075 | -89.08908 | 208 ft | 121 kts | 137° |
| 2026-05-06 22:36 | 30.41502 | -89.08243 | 48 ft | 111 kts | 133° |
| 2026-05-06 22:36 | 30.41014 | -89.07677 | 22 ft | 91 kts | 136° |
| 2026-05-06 22:36 | 30.40656 | -89.07271 | 25 ft | 36 kts | 132° |
| 2026-05-06 22:37 | 30.40581 | -89.07214 | 25 ft | 0 kts | 192° |
| 2026-05-06 22:37 | 30.40534 | -89.07249 | 25 ft | 16 kts | 224° |
| 2026-05-06 22:37 | 30.40443 | -89.07354 | 25 ft | 19 kts | 225° |
| 2026-05-06 22:37 | 30.40395 | -89.07358 | 25 ft | 9 kts | 112° |
| 2026-05-06 22:38 | 30.40366 | -89.07341 | 25 ft | 0 kts | 223° |